Time;durP1;ratioP1;P1;durP2;ratioP2;P2;SDS_P1;SDS_P2;PMS_P1;PMS_P2;Temp;Humidity;BMP_temperature;BMP_pressure;BME280_temperature;BME280_humidity;BME280_pressure;Samples;Min_cycle;Max_cycle;Signal;HPM_P1;HPM_P2
2023/05/11 00:02:11;;;;;;;;;;;;;;;;;;5075999;28;19920;-77
2023/05/11 00:04:44;;;;;;;;;;;;;;;;;;5089935;28;19920;-79
2023/05/11 00:07:11;;;;;;;;;;;;;;;;;;5081040;28;19928;-78
2023/05/11 00:09:40;;;;;;;;;;;;;;;;;;5079091;28;19920;-78
2023/05/11 00:12:07;;;;;;;;;;;;;;;;;;5072866;28;19986;-79
2023/05/11 00:14:35;;;;;;;;;;;;;;;;;;5075568;28;19920;-77
2023/05/11 00:17:02;;;;;;;;;;;;;;;;;;5082037;28;19928;-77
2023/05/11 00:19:31;;;;;;;;;;;;;;;;;;5085643;28;19924;-79
2023/05/11 00:21:58;;;;;;;;;;;;;;;;;;5080652;28;19957;-78
2023/05/11 00:24:26;;;;;;;;;;;;;;;;;;5088254;28;19920;-78
2023/05/11 00:26:53;;;;;;;;;;;;;;;;;;5071213;28;19920;-77
2023/05/11 00:29:21;;;;;;;;;;;;;;;;;;5075779;28;19920;-78
2023/05/11 00:31:48;;;;;;;;;;;;;;;;;;5079707;28;19932;-78
2023/05/11 00:34:16;;;;;;;;;;;;;;;;;;5084714;28;20300;-78
2023/05/11 00:36:44;;;;;;;;;;;;;;;;;;5085080;28;19928;-77
2023/05/11 00:39:17;;;;;;;;;;;;;;;;;;5090636;28;20426;-78
2023/05/11 00:41:44;;;;;;;;;;;;;;;;;;5082672;28;19921;-78
2023/05/11 00:44:12;;;;;;;;;;;;;;;;;;5075518;28;19920;-78
2023/05/11 00:46:40;;;;;;;;;;;;;;;;;;5077905;28;19921;-78
2023/05/11 00:49:08;;;;;;;;;;;;;;;;;;5085159;28;19931;-79
2023/05/11 00:51:36;;;;;;;;;;;;;;;;;;5075671;28;19928;-79
2023/05/11 00:54:03;;;;;;;;;;;;;;;;;;5082790;28;19936;-78
2023/05/11 00:56:31;;;;;;;;;;;;;;;;;;5081859;28;19920;-78
2023/05/11 00:58:58;;;;;;;;;;;;;;;;;;5080150;28;19931;-78
2023/05/11 01:01:27;;;;;;;;;;;;;;;;;;5083187;28;19920;-78
2023/05/11 01:03:54;;;;;;;;;;;;;;;;;;5088594;28;19927;-77
2023/05/11 01:06:27;;;;;;;;;;;;;;;;;;5084475;28;19927;-78
2023/05/11 01:08:54;;;;;;;;;;;;;;;;;;5076591;28;19943;-78
2023/05/11 01:11:22;;;;;;;;;;;;;;;;;;5079341;28;19927;-78
2023/05/11 01:13:49;;;;;;;;;;;;;;;;;;5085525;28;19928;-78
2023/05/11 01:16:17;;;;;;;;;;;;;;;;;;5089941;28;19920;-79
2023/05/11 01:18:53;;;;;;;;;;;;;;;;;;5093747;28;19927;-78
2023/05/11 01:21:20;;;;;;;;;;;;;;;;;;5091821;28;20380;-77
2023/05/11 01:23:48;;;;;;;;;;;;;;;;;;5091242;28;19928;-79
2023/05/11 01:26:15;;;;;;;;;;;;;;;;;;5074625;28;20365;-77
2023/05/11 01:28:43;;;;;;;;;;;;;;;;;;5087665;28;19943;-79
2023/05/11 01:31:10;;;;;;;;;;;;;;;;;;5101819;28;19919;-78
2023/05/11 01:33:38;;;;;;;;;;;;;;;;;;5077043;28;19924;-78
2023/05/11 01:36:11;;;;;;;;;;;;;;;;;;5093123;28;19927;-78
2023/05/11 01:38:38;;;;;;;;;;;;;;;;;;5087190;28;19994;-78
2023/05/11 01:41:11;;;;;;;;;;;;;;;;;;5085916;28;20368;-78
2023/05/11 01:43:38;;;;;;;;;;;;;;;;;;5094626;28;19947;-78
2023/05/11 01:46:06;;;;;;;;;;;;;;;;;;5086880;28;19920;-82
2023/05/11 01:48:34;;;;;;;;;;;;;;;;;;5088696;28;19920;-78
2023/05/11 01:51:07;;;;;;;;;;;;;;;;;;5095647;28;19920;-78
2023/05/11 01:53:34;;;;;;;;;;;;;;;;;;5094771;28;19935;-79
2023/05/11 01:56:02;;;;;;;;;;;;;;;;;;5093232;28;19927;-78
2023/05/11 01:58:29;;;;;;;;;;;;;;;;;;5088135;28;19920;-79
2023/05/11 02:00:59;;;;;;;;;;;;;;;;;;5085685;28;19920;-80
2023/05/11 02:03:26;;;;;;;;;;;;;;;;;;5078728;28;19920;-78
2023/05/11 02:05:59;;;;;;;;;;;;;;;;;;5093935;28;19924;-79
2023/05/11 02:08:31;;;;;;;;;;;;;;;;;;5078693;28;19920;-78
2023/05/11 02:10:59;;;;;;;;;;;;;;;;;;5074167;28;20372;-78
2023/05/11 02:13:28;;;;;;;;;;;;;;;;;;5086357;28;19924;-78
2023/05/11 02:15:55;;;;;;;;;;;;;;;;;;5073458;28;19920;-78
2023/05/11 02:18:23;;;;;;;;;;;;;;;;;;5083056;28;19927;-77
2023/05/11 02:20:57;;;;;;;;;;;;;;;;;;5088219;28;20265;-78
2023/05/11 02:23:25;;;;;;;;;;;;;;;;;;5074826;28;20293;-79
2023/05/11 02:25:52;;;;;;;;;;;;;;;;;;5074197;28;19920;-79
2023/05/11 02:28:20;;;;;;;;;;;;;;;;;;5078579;28;19927;-78
2023/05/11 02:30:48;;;;;;;;;;;;;;;;;;5094046;28;20307;-78
2023/05/11 02:33:16;;;;;;;;;;;;;;;;;;5088135;28;19921;-79
2023/05/11 02:35:43;;;;;;;;;;;;;;;;;;5092983;28;19927;-78
2023/05/11 02:38:11;;;;;;;;;;;;;;;;;;5085883;28;20304;-78
2023/05/11 02:40:38;;;;;;;;;;;;;;;;;;5084081;28;19927;-80
2023/05/11 02:43:06;;;;;;;;;;;;;;;;;;5079116;28;20284;-78
2023/05/11 02:45:43;;;;;;;;;;;;;;;;;;5080623;28;19920;-78
2023/05/11 02:48:11;;;;;;;;;;;;;;;;;;5087992;28;19920;-78
2023/05/11 02:50:38;;;;;;;;;;;;;;;;;;5087953;28;19943;-78
2023/05/11 02:53:06;;;;;;;;;;;;;;;;;;5082136;28;20738;-78
2023/05/11 02:55:38;;;;;;;;;;;;;;;;;;5090042;28;19931;-77
2023/05/11 02:58:06;;;;;;;;;;;;;;;;;;5074038;28;20277;-77
2023/05/11 03:00:34;;;;;;;;;;;;;;;;;;5072729;28;19920;-78
2023/05/11 03:03:07;;;;;;;;;;;;;;;;;;5102412;28;19928;-78
2023/05/11 03:05:34;;;;;;;;;;;;;;;;;;5089745;28;19920;-78
2023/05/11 03:08:02;;;;;;;;;;;;;;;;;;5072394;28;19927;-78
2023/05/11 03:10:30;;;;;;;;;;;;;;;;;;5078746;28;19924;-78
2023/05/11 03:12:57;;;;;;;;;;;;;;;;;;5076594;28;19920;-77
2023/05/11 03:15:25;;;;;;;;;;;;;;;;;;5071807;28;19920;-79
2023/05/11 03:17:54;;;;;;;;;;;;;;;;;;5103447;28;19920;-78
2023/05/11 03:20:21;;;;;;;;;;;;;;;;;;5086480;28;19924;-78
2023/05/11 03:22:49;;;;;;;;;;;;;;;;;;5079983;28;19920;-78
2023/05/11 03:25:17;;;;;;;;;;;;;;;;;;5088702;28;19920;-76
2023/05/11 03:27:45;;;;;;;;;;;;;;;;;;5086658;28;19920;-78
2023/05/11 03:30:13;;;;;;;;;;;;;;;;;;5077648;28;19961;-78
2023/05/11 03:32:44;;;;;;;;;;;;;;;;;;5073947;28;19920;-77
2023/05/11 03:35:11;;;;;;;;;;;;;;;;;;5084980;28;20380;-79
2023/05/11 03:37:39;;;;;;;;;;;;;;;;;;5083175;28;19920;-78
2023/05/11 03:40:07;;;;;;;;;;;;;;;;;;5087060;28;20249;-77
2023/05/11 03:42:45;;;;;;;;;;;;;;;;;;5080816;28;20603;-78
2023/05/11 03:45:13;;;;;;;;;;;;;;;;;;5077986;28;19927;-78
2023/05/11 03:47:40;;;;;;;;;;;;;;;;;;5087687;28;19931;-78
2023/05/11 03:50:09;;;;;;;;;;;;;;;;;;5080976;28;19920;-77
2023/05/11 03:52:36;;;;;;;;;;;;;;;;;;5085189;28;19920;-78
2023/05/11 03:55:05;;;;;;;;;;;;;;;;;;5085174;28;20307;-78
2023/05/11 03:57:32;;;;;;;;;;;;;;;;;;5078240;28;20288;-79
2023/05/11 03:59:59;;;;;;;;;;;;;;;;;;5082184;28;20428;-78
2023/05/11 04:02:27;;;;;;;;;;;;;;;;;;5095231;28;19927;-78
2023/05/11 04:04:55;;;;;;;;;;;;;;;;;;5082624;28;20284;-78
2023/05/11 04:07:22;;;;;;;;;;;;;;;;;;5087002;28;20395;-78
2023/05/11 04:09:50;;;;;;;;;;;;;;;;;;5079189;28;19924;-80
2023/05/11 04:12:18;;;;;;;;;;;;;;;;;;5078582;28;19920;-78
2023/05/11 04:14:45;;;;;;;;;;;;;;;;;;5079033;28;20285;-81
2023/05/11 04:17:17;;;;;;;;;;;;;;;;;;5074555;28;19927;-78
2023/05/11 04:19:45;;;;;;;;;;;;;;;;;;5081424;28;19920;-78
2023/05/11 04:22:12;;;;;;;;;;;;;;;;;;5087318;28;19920;-77
2023/05/11 04:24:40;;;;;;;;;;;;;;;;;;5086150;28;19931;-77
2023/05/11 04:27:07;;;;;;;;;;;;;;;;;;5083881;28;19920;-79
2023/05/11 04:29:36;;;;;;;;;;;;;;;;;;5091450;28;19924;-78
2023/05/11 04:32:04;;;;;;;;;;;;;;;;;;5070919;28;20436;-79
2023/05/11 04:34:37;;;;;;;;;;;;;;;;;;5079417;28;20015;-77
2023/05/11 04:37:06;;;;;;;;;;;;;;;;;;5077634;28;20392;-77
2023/05/11 04:39:34;;;;;;;;;;;;;;;;;;5087054;28;19928;-79
2023/05/11 04:42:02;;;;;;;;;;;;;;;;;;5063388;28;19927;-79
2023/05/11 04:44:30;;;;;;;;;;;;;;;;;;5084949;28;19924;-78
2023/05/11 04:46:57;;;;;;;;;;;;;;;;;;5080213;28;19927;-77
2023/05/11 04:49:25;;;;;;;;;;;;;;;;;;5087501;28;19920;-78
2023/05/11 04:51:52;;;;;;;;;;;;;;;;;;5085040;28;20372;-78
2023/05/11 04:54:20;;;;;;;;;;;;;;;;;;5091708;28;19947;-77
2023/05/11 04:56:48;;;;;;;;;;;;;;;;;;5086866;28;19927;-77
2023/05/11 04:59:16;;;;;;;;;;;;;;;;;;5075100;28;19920;-77
2023/05/11 05:01:44;;;;;;;;;;;;;;;;;;5083612;28;19939;-77
2023/05/11 05:04:11;;;;;;;;;;;;;;;;;;5084941;28;20332;-79
2023/05/11 05:06:39;;;;;;;;;;;;;;;;;;5075531;28;19920;-77
2023/05/11 05:09:06;;;;;;;;;;;;;;;;;;5086266;28;19924;-78
2023/05/11 05:11:34;;;;;;;;;;;;;;;;;;5082967;28;19927;-79
2023/05/11 05:14:02;;;;;;;;;;;;;;;;;;5086375;28;19949;-79
2023/05/11 05:16:29;;;;;;;;;;;;;;;;;;5091660;28;20329;-78
2023/05/11 05:18:57;;;;;;;;;;;;;;;;;;5080506;28;19920;-76
2023/05/11 05:21:24;;;;;;;;;;;;;;;;;;5081770;28;19920;-78
2023/05/11 05:23:57;;;;;;;;;;;;;;;;;;5085852;28;19931;-77
2023/05/11 05:26:24;;;;;;;;;;;;;;;;;;5086166;28;19928;-76
2023/05/11 05:28:57;;;;;;;;;;;;;;;;;;5084067;28;19924;-77
2023/05/11 05:31:24;;;;;;;;;;;;;;;;;;5085050;28;19920;-77
2023/05/11 05:33:52;;;;;;;;;;;;;;;;;;5084025;28;19920;-78
2023/05/11 05:36:20;;;;;;;;;;;;;;;;;;5088138;28;19920;-76
2023/05/11 05:38:47;;;;;;;;;;;;;;;;;;5098216;28;19924;-77
2023/05/11 05:41:15;;;;;;;;;;;;;;;;;;5089838;28;19927;-77
2023/05/11 05:43:44;;;;;;;;;;;;;;;;;;5084978;28;19920;-77
2023/05/11 05:46:12;;;;;;;;;;;;;;;;;;5082475;28;19924;-78
2023/05/11 05:48:40;;;;;;;;;;;;;;;;;;5090433;28;19920;-77
2023/05/11 05:51:08;;;;;;;;;;;;;;;;;;5098913;28;20611;-78
2023/05/11 05:53:37;;;;;;;;;;;;;;;;;;5091640;28;19935;-78
2023/05/11 05:56:05;;;;;;;;;;;;;;;;;;5084129;28;20309;-77
2023/05/11 05:58:33;;;;;;;;;;;;;;;;;;5082585;28;19920;-78
2023/05/11 06:01:01;;;;;;;;;;;;;;;;;;5083732;28;19928;-77
2023/05/11 06:03:28;;;;;;;;;;;;;;;;;;5089380;28;19943;-78
2023/05/11 06:05:56;;;;;;;;;;;;;;;;;;5088401;28;19923;-77
2023/05/11 06:08:24;;;;;;;;;;;;;;;;;;5090751;28;19920;-77
2023/05/11 06:10:51;;;;;;;;;;;;;;;;;;5086426;28;19931;-77
2023/05/11 06:13:19;;;;;;;;;;;;;;;;;;5096690;28;19920;-78
2023/05/11 06:15:47;;;;;;;;;;;;;;;;;;5085911;28;19927;-77
2023/05/11 06:18:24;;;;;;;;;;;;;;;;;;5075374;28;19943;-78
2023/05/11 06:20:57;;;;;;;;;;;;;;;;;;5083293;28;19931;-77
2023/05/11 06:23:31;;;;;;;;;;;;;;;;;;5083542;28;19927;-77
2023/05/11 06:25:58;;;;;;;;;;;;;;;;;;5084613;28;19927;-76
2023/05/11 06:28:28;;;;;;;;;;;;;;;;;;5085653;28;20288;-77
2023/05/11 06:30:59;;;;;;;;;;;;;;;;;;5089128;28;20368;-77
2023/05/11 06:33:30;;;;;;;;;;;;;;;;;;5081084;28;19928;-79
2023/05/11 06:35:58;;;;;;;;;;;;;;;;;;5081726;28;19920;-76
2023/05/11 06:38:28;;;;;;;;;;;;;;;;;;5079967;28;19920;-76
2023/05/11 06:40:56;;;;;;;;;;;;;;;;;;5091279;28;19920;-78
2023/05/11 06:43:23;;;;;;;;;;;;;;;;;;5084890;28;19928;-76
2023/05/11 06:45:52;;;;;;;;;;;;;;;;;;5086655;28;19920;-77
2023/05/11 06:48:22;;;;;;;;;;;;;;;;;;5082109;28;19920;-76
2023/05/11 06:50:49;;;;;;;;;;;;;;;;;;5085718;28;19920;-78
2023/05/11 06:53:17;;;;;;;;;;;;;;;;;;5081461;28;19920;-81
2023/05/11 06:55:45;;;;;;;;;;;;;;;;;;5076752;28;19955;-79
2023/05/11 06:58:13;;;;;;;;;;;;;;;;;;5082454;28;19924;-78
2023/05/11 07:00:45;;;;;;;;;;;;;;;;;;5066147;28;19928;-78
2023/05/11 07:03:13;;;;;;;;;;;;;;;;;;5065741;28;19924;-80
2023/05/11 07:05:40;;;;;;;;;;;;;;;;;;5069264;28;19935;-76
2023/05/11 07:08:08;;;;;;;;;;;;;;;;;;5070601;28;19924;-79
2023/05/11 07:10:41;;;;;;;;;;;;;;;;;;5072180;28;19935;-77
2023/05/11 07:13:08;;;;;;;;;;;;;;;;;;5072856;28;19928;-80
2023/05/11 07:15:36;;;;;;;;;;;;;;;;;;5069366;28;19969;-78
2023/05/11 07:18:03;;;;;;;;;;;;;;;;;;5069911;28;19927;-78
2023/05/11 07:20:36;;;;;;;;;;;;;;;;;;5063219;28;19923;-80
2023/05/11 07:23:04;;;;;;;;;;;;;;;;;;5065277;28;19935;-80
2023/05/11 07:25:31;;;;;;;;;;;;;;;;;;5066300;28;19927;-78
2023/05/11 07:27:59;;;;;;;;;;;;;;;;;;5067538;28;19928;-80
2023/05/11 07:30:26;;;;;;;;;;;;;;;;;;5066661;28;19928;-79
2023/05/11 07:32:54;;;;;;;;;;;;;;;;;;5067997;28;20328;-79
2023/05/11 07:35:26;;;;;;;;;;;;;;;;;;5063917;28;19939;-80
2023/05/11 07:37:54;;;;;;;;;;;;;;;;;;5066788;28;21457;-79
2023/05/11 07:40:27;;;;;;;;;;;;;;;;;;5068385;28;20643;-78
2023/05/11 07:42:55;;;;;;;;;;;;;;;;;;5065078;28;19935;-81
2023/05/11 07:45:23;;;;;;;;;;;;;;;;;;5074393;28;19931;-81
2023/05/11 07:47:50;;;;;;;;;;;;;;;;;;5066724;28;20382;-81
2023/05/11 07:50:19;;;;;;;;;;;;;;;;;;5068584;28;20643;-82
2023/05/11 07:52:46;;;;;;;;;;;;;;;;;;5067707;28;19939;-82
2023/05/11 07:55:14;;;;;;;;;;;;;;;;;;5066281;28;19928;-79
2023/05/11 07:57:42;;;;;;;;;;;;;;;;;;5071170;28;19928;-80
2023/05/11 08:00:09;;;;;;;;;;;;;;;;;;5067942;28;19928;-83
2023/05/11 08:02:39;;;;;;;;;;;;;;;;;;5071094;28;19939;-83
2023/05/11 08:05:12;;;;;;;;;;;;;;;;;;5068236;28;19935;-79
2023/05/11 08:07:40;;;;;;;;;;;;;;;;;;5069052;28;19928;-78
2023/05/11 08:10:07;;;;;;;;;;;;;;;;;;5074132;28;19935;-83
2023/05/11 08:12:35;;;;;;;;;;;;;;;;;;5070777;28;20726;-80
2023/05/11 08:15:03;;;;;;;;;;;;;;;;;;5068337;28;19962;-78
2023/05/11 08:17:31;;;;;;;;;;;;;;;;;;5066343;28;19950;-82
2023/05/11 08:20:03;;;;;;;;;;;;;;;;;;5072954;28;19930;-81
2023/05/11 08:22:31;;;;;;;;;;;;;;;;;;5071620;28;19928;-79
2023/05/11 08:24:59;;;;;;;;;;;;;;;;;;5069781;28;21310;-82
2023/05/11 08:27:26;;;;;;;;;;;;;;;;;;5074196;28;19928;-81
2023/05/11 08:29:54;;;;;;;;;;;;;;;;;;5067861;28;19939;-82
2023/05/11 08:32:21;;;;;;;;;;;;;;;;;;5063969;28;19927;-82
2023/05/11 08:34:49;;;;;;;;;;;;;;;;;;5068992;28;19924;-83
2023/05/11 08:37:16;;;;;;;;;;;;;;;;;;5069001;28;19928;-80
2023/05/11 08:39:50;;;;;;;;;;;;;;;;;;5068504;28;19935;-83
2023/05/11 08:42:22;;;;;;;;;;;;;;;;;;5063200;28;19931;-81
2023/05/11 08:44:50;;;;;;;;;;;;;;;;;;5071012;28;19935;-80
2023/05/11 08:47:17;;;;;;;;;;;;;;;;;;5065206;28;20406;-82
2023/05/11 08:49:45;;;;;;;;;;;;;;;;;;5081313;28;19919;-81
2023/05/11 08:52:12;;;;;;;;;;;;;;;;;;5085949;28;19920;-78
2023/05/11 08:54:40;;;;;;;;;;;;;;;;;;5090730;28;19943;-81
2023/05/11 08:57:07;;;;;;;;;;;;;;;;;;5090684;28;19920;-79
2023/05/11 08:59:35;;;;;;;;;;;;;;;;;;5089099;28;19920;-78
2023/05/11 09:02:02;;;;;;;;;;;;;;;;;;5082180;28;19920;-78
2023/05/11 09:04:30;;;;;;;;;;;;;;;;;;5084686;28;19924;-79
2023/05/11 09:06:57;;;;;;;;;;;;;;;;;;5082960;28;20395;-80
2023/05/11 09:09:25;;;;;;;;;;;;;;;;;;5084383;28;19925;-78
2023/05/11 09:11:52;;;;;;;;;;;;;;;;;;5086195;28;19920;-77
2023/05/11 09:14:20;;;;;;;;;;;;;;;;;;5073201;28;19931;-77
2023/05/11 09:16:47;;;;;;;;;;;;;;;;;;5075260;28;19919;-78
2023/05/11 09:19:20;;;;;;;;;;;;;;;;;;5083398;28;19920;-79
2023/05/11 09:21:48;;;;;;;;;;;;;;;;;;5087027;28;19924;-78
2023/05/11 09:24:15;;;;;;;;;;;;;;;;;;5087340;28;19920;-78
2023/05/11 09:26:48;;;;;;;;;;;;;;;;;;5086056;28;19943;-77
2023/05/11 09:29:15;;;;;;;;;;;;;;;;;;5085264;28;19927;-78
2023/05/11 09:31:48;;;;;;;;;;;;;;;;;;5080209;28;19932;-78
2023/05/11 09:34:15;;;;;;;;;;;;;;;;;;5087442;28;19920;-79
2023/05/11 09:36:43;;;;;;;;;;;;;;;;;;5083822;28;19920;-79
2023/05/11 09:39:11;;;;;;;;;;;;;;;;;;5081674;28;20270;-78
2023/05/11 09:41:38;;;;;;;;;;;;;;;;;;5084156;28;19924;-77
2023/05/11 09:44:11;;;;;;;;;;;;;;;;;;5082607;28;19921;-79
2023/05/11 09:46:38;;;;;;;;;;;;;;;;;;5082320;28;19924;-78
2023/05/11 09:49:06;;;;;;;;;;;;;;;;;;5087706;28;19920;-77
2023/05/11 09:51:33;;;;;;;;;;;;;;;;;;5080839;28;19924;-78
2023/05/11 09:54:01;;;;;;;;;;;;;;;;;;5088294;28;19921;-79
2023/05/11 09:56:28;;;;;;;;;;;;;;;;;;5085793;28;20244;-77
2023/05/11 09:58:57;;;;;;;;;;;;;;;;;;5086363;28;19920;-79
2023/05/11 10:01:24;;;;;;;;;;;;;;;;;;5091707;28;19924;-79
2023/05/11 10:03:52;;;;;;;;;;;;;;;;;;5085679;28;20552;-79
2023/05/11 10:06:20;;;;;;;;;;;;;;;;;;5085996;28;19928;-79
2023/05/11 10:08:47;;;;;;;;;;;;;;;;;;5085882;28;19931;-78
2023/05/11 10:11:20;;;;;;;;;;;;;;;;;;5087057;28;19924;-79
2023/05/11 10:13:47;;;;;;;;;;;;;;;;;;5083877;28;19931;-80
2023/05/11 10:16:15;;;;;;;;;;;;;;;;;;5090785;28;19920;-79
2023/05/11 10:18:48;;;;;;;;;;;;;;;;;;5086700;28;19939;-79
2023/05/11 10:21:15;;;;;;;;;;;;;;;;;;5083586;28;19927;-80
2023/05/11 10:23:42;;;;;;;;;;;;;;;;;;5089918;28;19928;-78
2023/05/11 10:26:10;;;;;;;;;;;;;;;;;;5077651;28;19924;-83
2023/05/11 10:28:38;;;;;;;;;;;;;;;;;;5092808;28;19931;-79
2023/05/11 10:31:05;;;;;;;;;;;;;;;;;;5076254;28;19929;-80
2023/05/11 10:33:33;;;;;;;;;;;;;;;;;;5065110;28;19920;-79
2023/05/11 10:36:05;;;;;;;;;;;;;;;;;;5069133;28;19920;-80
2023/05/11 10:38:33;;;;;;;;;;;;;;;;;;5064057;28;19935;-82
2023/05/11 10:41:01;;;;;;;;;;;;;;;;;;5066565;28;19935;-78
2023/05/11 10:43:33;;;;;;;;;;;;;;;;;;5064544;28;20700;-82
2023/05/11 10:46:01;;;;;;;;;;;;;;;;;;5061575;28;19928;-81
2023/05/11 10:48:28;;;;;;;;;;;;;;;;;;5067574;28;19928;-78
2023/05/11 10:50:56;;;;;;;;;;;;;;;;;;5064932;28;20360;-79
2023/05/11 10:53:23;;;;;;;;;;;;;;;;;;5060675;28;19931;-81
2023/05/11 10:55:50;;;;;;;;;;;;;;;;;;5061181;28;19938;-79
2023/05/11 10:58:23;;;;;;;;;;;;;;;;;;5065698;28;19920;-79
2023/05/11 11:00:51;;;;;;;;;;;;;;;;;;5081254;28;19936;-80
2023/05/11 11:03:18;;;;;;;;;;;;;;;;;;5068004;28;20608;-78
2023/05/11 11:05:46;;;;;;;;;;;;;;;;;;5070731;28;19943;-79
2023/05/11 11:08:14;;;;;;;;;;;;;;;;;;5065642;28;19928;-80
2023/05/11 11:10:44;;;;;;;;;;;;;;;;;;5064706;28;19939;-78
2023/05/11 11:13:12;;;;;;;;;;;;;;;;;;5063525;28;20307;-80
2023/05/11 11:15:44;;;;;;;;;;;;;;;;;;5085148;28;19931;-79
2023/05/11 11:18:12;;;;;;;;;;;;;;;;;;5072269;28;19931;-79
2023/05/11 11:20:44;;;;;;;;;;;;;;;;;;5049832;28;19924;-79
2023/05/11 11:23:12;;;;;;;;;;;;;;;;;;5046125;28;19929;-78
2023/05/11 11:25:39;;;;;;;;;;;;;;;;;;5048388;28;20324;-79
2023/05/11 11:28:07;;;;;;;;;;;;;;;;;;5055600;28;19936;-81
2023/05/11 11:30:40;;;;;;;;;;;;;;;;;;5047638;28;19951;-79
2023/05/11 11:33:07;;;;;;;;;;;;;;;;;;5043896;28;19935;-79
2023/05/11 11:35:35;;;;;;;;;;;;;;;;;;5050474;28;20548;-81
2023/05/11 11:38:02;;;;;;;;;;;;;;;;;;5047953;28;19952;-78
2023/05/11 11:40:30;;;;;;;;;;;;;;;;;;5042395;28;19928;-81
2023/05/11 11:42:57;;;;;;;;;;;;;;;;;;5046089;28;19928;-77
2023/05/11 11:45:25;;;;;;;;;;;;;;;;;;5048842;28;20309;-79
2023/05/11 11:47:53;;;;;;;;;;;;;;;;;;5053819;28;19929;-78
2023/05/11 11:50:25;;;;;;;;;;;;;;;;;;5043350;28;19928;-79
2023/05/11 11:52:52;;;;;;;;;;;;;;;;;;5046018;28;19936;-77
2023/05/11 11:55:20;;;;;;;;;;;;;;;;;;5049357;28;19939;-79
2023/05/11 11:57:50;;;;;;;;;;;;;;;;;;5045205;28;19935;-80
2023/05/11 12:00:17;;;;;;;;;;;;;;;;;;5050284;28;21207;-79
2023/05/11 12:02:45;;;;;;;;;;;;;;;;;;5046770;28;19928;-79
2023/05/11 12:05:12;;;;;;;;;;;;;;;;;;5043132;28;19948;-80
2023/05/11 12:07:40;;;;;;;;;;;;;;;;;;5051448;28;19928;-80
2023/05/11 12:10:13;;;;;;;;;;;;;;;;;;5052350;28;19928;-78
2023/05/11 12:12:40;;;;;;;;;;;;;;;;;;5051970;28;19931;-81
2023/05/11 12:15:08;;;;;;;;;;;;;;;;;;5042013;28;19921;-80
2023/05/11 12:17:36;;;;;;;;;;;;;;;;;;5051611;28;19924;-80
2023/05/11 12:20:03;;;;;;;;;;;;;;;;;;5053236;28;19928;-82
2023/05/11 12:22:31;;;;;;;;;;;;;;;;;;5052996;28;19939;-80
2023/05/11 12:24:58;;;;;;;;;;;;;;;;;;5047550;28;19928;-80
2023/05/11 12:27:26;;;;;;;;;;;;;;;;;;5027238;28;19936;-78
2023/05/11 12:29:53;;;;;;;;;;;;;;;;;;5052163;28;19936;-79
2023/05/11 12:32:21;;;;;;;;;;;;;;;;;;5047526;28;19948;-82
2023/05/11 12:34:49;;;;;;;;;;;;;;;;;;5050879;28;19931;-79
2023/05/11 12:37:16;;;;;;;;;;;;;;;;;;5046288;28;19939;-83
2023/05/11 12:39:44;;;;;;;;;;;;;;;;;;5045644;28;19935;-79
2023/05/11 12:42:16;;;;;;;;;;;;;;;;;;5051342;28;19928;-81
2023/05/11 12:44:44;;;;;;;;;;;;;;;;;;5043360;28;19929;-78
2023/05/11 12:47:11;;;;;;;;;;;;;;;;;;5049222;28;20875;-78
2023/05/11 12:49:39;;;;;;;;;;;;;;;;;;5044270;28;19943;-78
2023/05/11 12:52:12;;;;;;;;;;;;;;;;;;5046802;28;19928;-82
2023/05/11 12:54:39;;;;;;;;;;;;;;;;;;5050004;28;20686;-81
2023/05/11 12:57:07;;;;;;;;;;;;;;;;;;5044795;28;19928;-79
2023/05/11 12:59:36;;;;;;;;;;;;;;;;;;5044115;28;19928;-81
2023/05/11 13:02:09;;;;;;;;;;;;;;;;;;5047704;28;19925;-80
2023/05/11 13:04:36;;;;;;;;;;;;;;;;;;5046443;28;19928;-80
2023/05/11 13:07:04;;;;;;;;;;;;;;;;;;5048168;28;19931;-79
2023/05/11 13:09:36;;;;;;;;;;;;;;;;;;5050009;28;19948;-82
2023/05/11 13:12:04;;;;;;;;;;;;;;;;;;5046275;28;19928;-81
2023/05/11 13:14:32;;;;;;;;;;;;;;;;;;5052014;28;19935;-81
2023/05/11 13:17:00;;;;;;;;;;;;;;;;;;5048958;28;21439;-77
2023/05/11 13:19:28;;;;;;;;;;;;;;;;;;5047243;28;21190;-78
2023/05/11 13:21:56;;;;;;;;;;;;;;;;;;5046910;28;19929;-79
2023/05/11 13:24:23;;;;;;;;;;;;;;;;;;5051307;28;19936;-80
2023/05/11 13:26:51;;;;;;;;;;;;;;;;;;5026079;28;19928;-79
2023/05/11 13:29:18;;;;;;;;;;;;;;;;;;5051483;28;19928;-77
2023/05/11 13:31:46;;;;;;;;;;;;;;;;;;5049570;28;21022;-82
2023/05/11 13:34:13;;;;;;;;;;;;;;;;;;5047130;28;20388;-80
2023/05/11 13:36:41;;;;;;;;;;;;;;;;;;5046020;28;20277;-79
2023/05/11 13:39:09;;;;;;;;;;;;;;;;;;5051029;28;19926;-81
2023/05/11 13:41:41;;;;;;;;;;;;;;;;;;5049777;28;20476;-81
2023/05/11 13:44:09;;;;;;;;;;;;;;;;;;5057144;28;19939;-77
2023/05/11 13:46:36;;;;;;;;;;;;;;;;;;5053478;28;19920;-77
2023/05/11 13:49:05;;;;;;;;;;;;;;;;;;5049617;28;19981;-80
2023/05/11 13:51:32;;;;;;;;;;;;;;;;;;5046731;28;19931;-80
2023/05/11 13:54:05;;;;;;;;;;;;;;;;;;5049751;28;19935;-78
2023/05/11 13:56:32;;;;;;;;;;;;;;;;;;5048152;28;19928;-81
2023/05/11 13:59:00;;;;;;;;;;;;;;;;;;5046191;28;19935;-80
2023/05/11 14:01:27;;;;;;;;;;;;;;;;;;5052277;28;19920;-83
2023/05/11 14:03:55;;;;;;;;;;;;;;;;;;5052650;28;19925;-82
2023/05/11 14:06:23;;;;;;;;;;;;;;;;;;5051434;28;20574;-79
2023/05/11 14:08:50;;;;;;;;;;;;;;;;;;5047076;28;19928;-82
2023/05/11 14:11:18;;;;;;;;;;;;;;;;;;5043991;28;19936;-80
2023/05/11 14:13:45;;;;;;;;;;;;;;;;;;5048680;28;20157;-82
2023/05/11 14:16:18;;;;;;;;;;;;;;;;;;5041478;28;20011;-79
2023/05/11 14:18:45;;;;;;;;;;;;;;;;;;5042171;28;19959;-80
2023/05/11 14:21:13;;;;;;;;;;;;;;;;;;5046567;28;19928;-79
2023/05/11 14:23:40;;;;;;;;;;;;;;;;;;5048857;28;19928;-77
2023/05/11 14:26:08;;;;;;;;;;;;;;;;;;5024009;28;19921;-82
2023/05/11 14:28:41;;;;;;;;;;;;;;;;;;5048047;28;19936;-80
2023/05/11 14:31:08;;;;;;;;;;;;;;;;;;5050847;28;19931;-78
2023/05/11 14:33:36;;;;;;;;;;;;;;;;;;5052203;28;19935;-77
2023/05/11 14:36:03;;;;;;;;;;;;;;;;;;5046790;28;19936;-79
2023/05/11 14:38:31;;;;;;;;;;;;;;;;;;5049795;28;19943;-82
2023/05/11 14:40:58;;;;;;;;;;;;;;;;;;5046552;28;19935;-79
2023/05/11 14:43:31;;;;;;;;;;;;;;;;;;5047456;28;19928;-79
2023/05/11 14:45:59;;;;;;;;;;;;;;;;;;5047094;28;19933;-80
2023/05/11 14:48:26;;;;;;;;;;;;;;;;;;5043500;28;19928;-79
2023/05/11 14:50:59;;;;;;;;;;;;;;;;;;5046013;28;19929;-80
2023/05/11 14:53:31;;;;;;;;;;;;;;;;;;5048794;28;20296;-79
2023/05/11 14:55:59;;;;;;;;;;;;;;;;;;5051815;28;19928;-81
2023/05/11 14:58:26;;;;;;;;;;;;;;;;;;5043623;28;19928;-77
2023/05/11 15:00:54;;;;;;;;;;;;;;;;;;5045540;28;19928;-78
2023/05/11 15:03:23;;;;;;;;;;;;;;;;;;5049860;28;19928;-80
2023/05/11 15:05:51;;;;;;;;;;;;;;;;;;5043721;28;19935;-79
2023/05/11 15:08:18;;;;;;;;;;;;;;;;;;5043514;28;19946;-79
2023/05/11 15:10:47;;;;;;;;;;;;;;;;;;5047871;28;20320;-82
2023/05/11 15:13:14;;;;;;;;;;;;;;;;;;5049120;28;20866;-78
2023/05/11 15:15:42;;;;;;;;;;;;;;;;;;5048798;28;19928;-82
2023/05/11 15:18:12;;;;;;;;;;;;;;;;;;5045734;28;19929;-79
2023/05/11 15:20:45;;;;;;;;;;;;;;;;;;5048570;28;20397;-81
2023/05/11 15:23:15;;;;;;;;;;;;;;;;;;5052260;28;19928;-84
2023/05/11 15:25:43;;;;;;;;;;;;;;;;;;5022271;28;20752;-80
2023/05/11 15:28:11;;;;;;;;;;;;;;;;;;5054197;28;19928;-84
2023/05/11 15:30:43;;;;;;;;;;;;;;;;;;5044547;28;19929;-83
2023/05/11 15:33:11;;;;;;;;;;;;;;;;;;5047941;28;19928;-84
2023/05/11 15:35:38;;;;;;;;;;;;;;;;;;5045103;28;19975;-83
2023/05/11 15:38:06;;;;;;;;;;;;;;;;;;5043847;28;19924;-81
2023/05/11 15:40:33;;;;;;;;;;;;;;;;;;5051762;28;19937;-79
2023/05/11 15:43:01;;;;;;;;;;;;;;;;;;5047432;28;20767;-80
2023/05/11 15:45:29;;;;;;;;;;;;;;;;;;5047317;28;20356;-78
2023/05/11 15:48:01;;;;;;;;;;;;;;;;;;5053140;28;19920;-82
2023/05/11 15:50:29;;;;;;;;;;;;;;;;;;5049690;28;19928;-78
2023/05/11 15:52:56;;;;;;;;;;;;;;;;;;5048665;28;19928;-77
2023/05/11 15:55:24;;;;;;;;;;;;;;;;;;5046679;28;21166;-80
2023/05/11 15:57:56;;;;;;;;;;;;;;;;;;5047271;28;19933;-81
2023/05/11 16:00:24;;;;;;;;;;;;;;;;;;5045344;28;19928;-80
2023/05/11 16:02:51;;;;;;;;;;;;;;;;;;5044460;28;19935;-83
2023/05/11 16:05:19;;;;;;;;;;;;;;;;;;5043279;28;20010;-79
2023/05/11 16:07:46;;;;;;;;;;;;;;;;;;5047905;28;19935;-83
2023/05/11 16:10:14;;;;;;;;;;;;;;;;;;5042994;28;19928;-82
2023/05/11 16:12:41;;;;;;;;;;;;;;;;;;5048475;28;19928;-78
2023/05/11 16:15:09;;;;;;;;;;;;;;;;;;5067586;28;19928;-83
2023/05/11 16:17:41;;;;;;;;;;;;;;;;;;5047764;28;19928;-82
2023/05/11 16:20:10;;;;;;;;;;;;;;;;;;5051447;28;19940;-83
2023/05/11 16:22:37;;;;;;;;;;;;;;;;;;5049269;28;19934;-77
2023/05/11 16:25:05;;;;;;;;;;;;;;;;;;5045287;28;19928;-83
2023/05/11 16:27:33;;;;;;;;;;;;;;;;;;5029250;28;19928;-81
2023/05/11 16:30:00;;;;;;;;;;;;;;;;;;5043753;28;19934;-79
2023/05/11 16:32:28;;;;;;;;;;;;;;;;;;5041669;28;19928;-81
2023/05/11 16:34:55;;;;;;;;;;;;;;;;;;5042413;28;19935;-80
2023/05/11 16:37:23;;;;;;;;;;;;;;;;;;5042286;28;20392;-78
2023/05/11 16:39:50;;;;;;;;;;;;;;;;;;5047128;28;19935;-80
2023/05/11 16:42:18;;;;;;;;;;;;;;;;;;5049335;28;19928;-78
2023/05/11 16:44:46;;;;;;;;;;;;;;;;;;5067933;28;19931;-80
2023/05/11 16:47:14;;;;;;;;;;;;;;;;;;5047483;28;19928;-78
2023/05/11 16:49:41;;;;;;;;;;;;;;;;;;5048530;28;20311;-81
2023/05/11 16:52:09;;;;;;;;;;;;;;;;;;5047438;28;19931;-81
2023/05/11 16:54:36;;;;;;;;;;;;;;;;;;5054443;28;19934;-82